createdAt,value
2023-02-14T00:00:02.959Z,0
2023-02-14T00:05:02.652Z,0
2023-02-14T00:10:02.493Z,0
2023-02-14T00:15:03.262Z,0
2023-02-14T00:20:02.929Z,0
2023-02-14T00:25:02.628Z,0
2023-02-14T00:30:02.779Z,0
2023-02-14T00:35:02.648Z,0
2023-02-14T00:40:02.649Z,0
2023-02-14T00:45:03.296Z,0
2023-02-14T00:50:03.325Z,0
2023-02-14T00:55:03.644Z,0
2023-02-14T01:00:03.345Z,0
2023-02-14T01:05:02.942Z,0
2023-02-14T01:10:02.653Z,0
2023-02-14T01:15:03.369Z,0
2023-02-14T01:20:02.413Z,0
2023-02-14T01:25:03.435Z,0
2023-02-14T01:30:03.228Z,0
2023-02-14T01:35:02.978Z,0
2023-02-14T01:40:02.790Z,0
2023-02-14T01:45:02.553Z,0
2023-02-14T01:50:02.422Z,0
2023-02-14T01:55:03.934Z,0
2023-02-14T02:00:03.294Z,0
2023-02-14T02:05:02.804Z,0
2023-02-14T02:10:02.661Z,0
2023-02-14T02:15:02.938Z,0
2023-02-14T02:20:02.603Z,0
2023-02-14T02:25:03.243Z,0
2023-02-14T02:30:03.503Z,0
2023-02-14T02:35:02.957Z,0
2023-02-14T02:40:02.651Z,0
2023-02-14T02:45:02.861Z,0
2023-02-14T02:50:02.520Z,0
2023-02-14T02:55:03.895Z,0
2023-02-14T03:00:03.179Z,0
2023-02-14T03:05:02.924Z,0
2023-02-14T03:10:02.443Z,0
2023-02-14T03:15:03.277Z,0
2023-02-14T03:20:03.189Z,0
2023-02-14T03:25:03.051Z,0
2023-02-14T03:30:02.865Z,0
2023-02-14T03:35:02.518Z,0
2023-02-14T03:40:03.247Z,0
2023-02-14T03:45:03.226Z,0
2023-02-14T03:50:03.056Z,0
2023-02-14T03:55:03.290Z,0
2023-02-14T04:00:03.100Z,0
2023-02-14T04:05:02.708Z,0
2023-02-14T04:10:02.828Z,0
2023-02-14T04:15:02.967Z,0
2023-02-14T04:20:02.968Z,0
2023-02-14T04:25:02.466Z,0
2023-02-14T04:30:03.369Z,0
2023-02-14T04:35:02.888Z,0
2023-02-14T04:40:02.641Z,0
2023-02-14T04:45:04.552Z,0
2023-02-14T04:50:03.592Z,0
2023-02-14T04:55:03.685Z,0
2023-02-14T05:00:02.761Z,0
2023-02-14T05:05:02.393Z,0
2023-02-14T05:10:03.322Z,0
2023-02-14T05:15:02.951Z,0
2023-02-14T05:20:02.634Z,0
2023-02-14T05:25:03.406Z,0
2023-02-14T05:30:03.357Z,0
2023-02-14T05:35:02.837Z,0
2023-02-14T05:40:02.564Z,0
2023-02-14T05:45:02.481Z,0
2023-02-14T05:50:03.169Z,0.34
2023-02-14T05:55:03.810Z,1.02
2023-02-14T06:00:03.224Z,2.49
2023-02-14T06:05:03.041Z,5.55
2023-02-14T06:10:02.751Z,5
2023-02-14T06:15:02.648Z,15
2023-02-14T06:20:02.780Z,35
2023-02-14T06:25:02.810Z,56.67
2023-02-14T06:30:02.973Z,90
2023-02-14T06:35:02.600Z,205
2023-02-14T06:40:03.157Z,271.67
2023-02-14T06:45:03.149Z,346.67
2023-02-14T06:50:02.877Z,426.67
2023-02-14T06:55:03.387Z,505
2023-02-14T07:00:02.549Z,631.67
2023-02-14T07:05:02.574Z,751.67
2023-02-14T07:10:03.311Z,875
2023-02-14T07:15:03.366Z,966.67
2023-02-14T07:20:02.989Z,1036.67
2023-02-14T07:25:02.642Z,1205
2023-02-14T07:30:03.457Z,1308.33
2023-02-14T07:35:03.077Z,1425
2023-02-14T07:40:03.144Z,1540
2023-02-14T07:45:21.472Z,1695
2023-02-14T07:50:03.074Z,1771.67
2023-02-14T07:55:03.779Z,1815
2023-02-14T08:00:02.808Z,2036.67
2023-02-14T08:05:02.671Z,2283.33
2023-02-14T08:10:03.279Z,2370
2023-02-14T08:15:02.585Z,2425
2023-02-14T08:20:03.211Z,2470
2023-02-14T08:25:03.130Z,2731.67
2023-02-14T08:30:03.343Z,2925
2023-02-14T08:35:02.644Z,3065
2023-02-14T08:40:02.418Z,2741.67
2023-02-14T08:45:03.203Z,3163.33
2023-02-14T08:50:03.048Z,3246.67
2023-02-14T08:55:03.784Z,3125
2023-02-14T09:00:02.935Z,3628.33
2023-02-14T09:05:02.789Z,3461.67
2023-02-14T09:10:02.512Z,3398.33
2023-02-14T09:15:03.247Z,3748.33
2023-02-14T09:20:02.906Z,3918.33
2023-02-14T09:25:02.860Z,3685
2023-02-14T09:30:02.638Z,3298.33
2023-02-14T09:35:03.231Z,3378.33
2023-02-14T09:40:03.017Z,3345
2023-02-14T09:45:02.940Z,3280
2023-02-14T09:50:03.077Z,3420
2023-02-14T09:55:03.181Z,3128.33
2023-02-14T10:00:03.221Z,3256.67
2023-02-14T10:05:02.848Z,3400
2023-02-14T10:10:02.504Z,3638.33
2023-02-14T10:15:03.402Z,3751.67
2023-02-14T10:20:03.325Z,3626.67
2023-02-14T10:25:03.044Z,3448.33
2023-02-14T10:30:03.108Z,3335
2023-02-14T10:35:02.739Z,3471.67
2023-02-14T10:40:02.766Z,3685
2023-02-14T10:45:02.472Z,3938.33
2023-02-14T10:50:03.259Z,4201.67
2023-02-14T10:55:03.404Z,4040
2023-02-14T11:00:02.726Z,4088.33
2023-02-14T11:05:02.521Z,4398.33
2023-02-14T11:10:03.221Z,3955
2023-02-14T11:15:03.312Z,4023.33
2023-02-14T11:20:03.214Z,3881.67
2023-02-14T11:25:04.896Z,4120
2023-02-14T11:30:03.463Z,4723.33
2023-02-14T11:35:03.202Z,5215
2023-02-14T11:40:02.771Z,5218.33
2023-02-14T11:45:02.427Z,4586.67
2023-02-14T11:50:03.191Z,4458.33
2023-02-14T11:55:03.489Z,4871.67
2023-02-14T12:00:03.080Z,5411.67
2023-02-14T12:05:02.634Z,6710
2023-02-14T12:10:02.423Z,7186.67
2023-02-14T12:15:03.207Z,6738.33
2023-02-14T12:20:03.177Z,7111.67
2023-02-14T12:25:03.218Z,6603.33
2023-02-14T12:30:03.063Z,6041.67
2023-02-14T12:35:02.715Z,5991.67
2023-02-14T12:40:02.897Z,5510
2023-02-14T12:45:02.784Z,5288.33
2023-02-14T12:50:02.419Z,5416.67
2023-02-14T12:55:03.699Z,5296.67
2023-02-14T13:00:03.424Z,4458.33
2023-02-14T13:05:03.134Z,5958.33
2023-02-14T13:10:03.174Z,8633.33
2023-02-14T13:15:03.055Z,5496.67
2023-02-14T13:20:02.894Z,4608.33
2023-02-14T13:25:02.581Z,4763.33
2023-02-14T13:30:03.535Z,4640
2023-02-14T13:35:03.142Z,4061.67
2023-02-14T13:40:03.205Z,5646.67
2023-02-14T13:45:02.921Z,8548.33
2023-02-14T13:50:02.416Z,6150
2023-02-14T13:55:02.819Z,5023.33
2023-02-14T14:00:02.970Z,4675
2023-02-14T14:05:02.798Z,4638.33
2023-02-14T14:10:02.609Z,4266.67
2023-02-14T14:15:02.819Z,6385
2023-02-14T14:20:02.615Z,6866.67
2023-02-14T14:25:03.316Z,7275
2023-02-14T14:30:03.116Z,6400
2023-02-14T14:35:02.853Z,5466.67
2023-02-14T14:40:02.494Z,4735
2023-02-14T14:45:03.173Z,4543.33
2023-02-14T14:50:03.162Z,4185
2023-02-14T14:55:03.206Z,4136.67
2023-02-14T15:00:02.689Z,3998.33
2023-02-14T15:05:02.412Z,3928.33
2023-02-14T15:10:03.066Z,3548.33
2023-02-14T15:15:02.907Z,2963.33
2023-02-14T15:20:02.674Z,2670
2023-02-14T15:25:02.535Z,2400
2023-02-14T15:30:03.312Z,2096.67
2023-02-14T15:35:03.051Z,1805
2023-02-14T15:40:02.920Z,1616.67
2023-02-14T15:45:02.606Z,1350
2023-02-14T15:50:03.325Z,1155
2023-02-14T15:55:03.537Z,975
2023-02-14T16:00:02.873Z,818.33
2023-02-14T16:05:03.071Z,523.33
2023-02-14T16:10:07.800Z,403.33
2023-02-14T16:15:02.494Z,295
2023-02-14T16:20:02.495Z,208.33
2023-02-14T16:25:03.322Z,133.33
2023-02-14T16:30:03.283Z,78.33
2023-02-14T16:35:03.197Z,40
2023-02-14T16:40:02.925Z,18.33
2023-02-14T16:45:02.675Z,6.67
2023-02-14T16:50:02.341Z,6.68
2023-02-14T16:55:03.832Z,2.6
2023-02-14T17:00:03.152Z,1.02
2023-02-14T17:05:03.048Z,0.34
2023-02-14T17:10:02.715Z,0
2023-02-14T17:15:02.582Z,0
2023-02-14T17:20:02.378Z,0
2023-02-14T17:25:02.444Z,0
2023-02-14T17:30:03.433Z,0
2023-02-14T17:35:03.017Z,0
2023-02-14T17:40:02.845Z,0
2023-02-14T17:45:02.526Z,0
2023-02-14T17:50:03.305Z,0
2023-02-14T17:55:04.125Z,0
2023-02-14T18:00:02.841Z,0
2023-02-14T18:05:02.476Z,0
2023-02-14T18:10:03.347Z,0
2023-02-14T18:15:03.391Z,0
2023-02-14T18:20:03.348Z,0
2023-02-14T18:25:03.069Z,0
2023-02-14T18:30:02.863Z,0
2023-02-14T18:35:02.552Z,0
2023-02-14T18:40:02.569Z,0
2023-02-14T18:45:03.290Z,0
2023-02-14T18:50:03.119Z,0
2023-02-14T18:55:03.734Z,0
2023-02-14T19:00:03.184Z,0
2023-02-14T19:05:03.261Z,0
2023-02-14T19:10:03.035Z,0
2023-02-14T19:15:02.836Z,0
2023-02-14T19:20:02.693Z,0
2023-02-14T19:25:03.312Z,0
2023-02-14T19:30:03.055Z,0
2023-02-14T19:35:02.627Z,0
2023-02-14T19:40:02.461Z,0
2023-02-14T19:45:03.346Z,0
2023-02-14T19:50:02.944Z,0
2023-02-14T19:55:03.611Z,0
2023-02-14T20:00:02.418Z,0
2023-02-14T20:05:03.253Z,0
2023-02-14T20:10:02.984Z,0
2023-02-14T20:15:02.862Z,0
2023-02-14T20:20:02.677Z,0
2023-02-14T20:25:02.415Z,0
2023-02-14T20:30:03.330Z,0
2023-02-14T20:35:03.345Z,0
2023-02-14T20:40:02.564Z,0
2023-02-14T20:45:02.644Z,0
2023-02-14T20:50:02.502Z,0
2023-02-14T20:55:03.363Z,0
2023-02-14T21:00:03.341Z,0
2023-02-14T21:05:03.080Z,0
2023-02-14T21:10:02.747Z,0
2023-02-14T21:15:02.524Z,0
2023-02-14T21:20:03.270Z,0
2023-02-14T21:25:03.031Z,0
2023-02-14T21:30:02.827Z,0
2023-02-14T21:35:02.372Z,0
2023-02-14T21:40:03.280Z,0
2023-02-14T21:45:03.024Z,0
2023-02-14T21:50:02.902Z,0
2023-02-14T21:55:03.347Z,0
2023-02-14T22:00:03.348Z,0
2023-02-14T22:05:02.966Z,0
2023-02-14T22:10:03.162Z,0
2023-02-14T22:15:02.994Z,0
2023-02-14T22:20:02.604Z,0
2023-02-14T22:25:02.487Z,0
2023-02-14T22:30:03.296Z,0
2023-02-14T22:35:02.900Z,0
2023-02-14T22:40:02.616Z,0
2023-02-14T22:45:03.376Z,0
2023-02-14T22:50:03.646Z,0
2023-02-14T22:55:03.548Z,0
2023-02-14T23:00:02.801Z,0
2023-02-14T23:05:03.027Z,0
2023-02-14T23:10:02.743Z,0
2023-02-14T23:15:02.800Z,0
2023-02-14T23:20:03.283Z,0
2023-02-14T23:25:02.967Z,0
2023-02-14T23:30:02.806Z,0
2023-02-14T23:35:02.396Z,0
2023-02-14T23:40:03.223Z,0
2023-02-14T23:45:03.290Z,0
2023-02-14T23:50:03.076Z,0
2023-02-14T23:55:03.476Z,0
